sensor_id;sensor_type;location;lat;lon;timestamp;P1;durP1;ratioP1;P2;durP2;ratioP2
8450;SDS011;4262;50.980;13.892;2024-03-17T00:01:52;14.27;;;5.50;;
8450;SDS011;4262;50.980;13.892;2024-03-17T00:04:20;9.03;;;4.80;;
8450;SDS011;4262;50.980;13.892;2024-03-17T00:06:47;10.43;;;5.33;;
8450;SDS011;4262;50.980;13.892;2024-03-17T00:09:14;11.87;;;5.10;;
8450;SDS011;4262;50.980;13.892;2024-03-17T00:11:41;11.30;;;5.60;;
8450;SDS011;4262;50.980;13.892;2024-03-17T00:14:08;12.03;;;4.90;;
8450;SDS011;4262;50.980;13.892;2024-03-17T00:16:34;13.10;;;5.97;;
8450;SDS011;4262;50.980;13.892;2024-03-17T00:19:01;10.00;;;5.40;;
8450;SDS011;4262;50.980;13.892;2024-03-17T00:21:28;10.20;;;4.60;;
8450;SDS011;4262;50.980;13.892;2024-03-17T00:23:54;9.23;;;4.77;;
8450;SDS011;4262;50.980;13.892;2024-03-17T00:26:20;9.27;;;4.37;;
8450;SDS011;4262;50.980;13.892;2024-03-17T00:28:47;10.43;;;4.63;;
8450;SDS011;4262;50.980;13.892;2024-03-17T00:31:16;9.53;;;4.83;;
8450;SDS011;4262;50.980;13.892;2024-03-17T00:33:43;16.33;;;5.13;;
8450;SDS011;4262;50.980;13.892;2024-03-17T00:36:09;10.57;;;5.13;;
8450;SDS011;4262;50.980;13.892;2024-03-17T00:38:38;8.43;;;4.67;;
8450;SDS011;4262;50.980;13.892;2024-03-17T00:41:03;12.63;;;4.80;;
8450;SDS011;4262;50.980;13.892;2024-03-17T00:43:31;9.10;;;5.03;;
8450;SDS011;4262;50.980;13.892;2024-03-17T00:45:57;19.23;;;5.13;;
8450;SDS011;4262;50.980;13.892;2024-03-17T00:48:24;8.90;;;4.63;;
8450;SDS011;4262;50.980;13.892;2024-03-17T00:50:54;11.00;;;4.63;;
8450;SDS011;4262;50.980;13.892;2024-03-17T00:53:21;11.50;;;5.33;;
8450;SDS011;4262;50.980;13.892;2024-03-17T00:55:52;12.20;;;4.63;;
8450;SDS011;4262;50.980;13.892;2024-03-17T00:58:19;12.30;;;4.13;;
8450;SDS011;4262;50.980;13.892;2024-03-17T01:00:45;13.60;;;4.80;;
8450;SDS011;4262;50.980;13.892;2024-03-17T01:03:13;8.47;;;4.70;;
8450;SDS011;4262;50.980;13.892;2024-03-17T01:05:39;10.33;;;5.40;;
8450;SDS011;4262;50.980;13.892;2024-03-17T01:08:08;12.67;;;4.57;;
8450;SDS011;4262;50.980;13.892;2024-03-17T01:10:36;10.83;;;4.47;;
8450;SDS011;4262;50.980;13.892;2024-03-17T01:13:05;9.90;;;4.50;;
8450;SDS011;4262;50.980;13.892;2024-03-17T01:15:33;9.60;;;4.40;;
8450;SDS011;4262;50.980;13.892;2024-03-17T01:18:00;10.07;;;5.10;;
8450;SDS011;4262;50.980;13.892;2024-03-17T01:20:26;12.20;;;4.53;;
8450;SDS011;4262;50.980;13.892;2024-03-17T01:22:52;8.80;;;5.07;;
8450;SDS011;4262;50.980;13.892;2024-03-17T01:25:19;10.80;;;4.53;;
8450;SDS011;4262;50.980;13.892;2024-03-17T01:27:45;13.77;;;3.70;;
8450;SDS011;4262;50.980;13.892;2024-03-17T01:30:13;13.83;;;4.83;;
8450;SDS011;4262;50.980;13.892;2024-03-17T01:32:39;15.43;;;5.63;;
8450;SDS011;4262;50.980;13.892;2024-03-17T01:35:06;16.17;;;5.30;;
8450;SDS011;4262;50.980;13.892;2024-03-17T01:37:33;13.37;;;5.13;;
8450;SDS011;4262;50.980;13.892;2024-03-17T01:39:59;10.73;;;4.37;;
8450;SDS011;4262;50.980;13.892;2024-03-17T01:42:25;13.00;;;4.20;;
8450;SDS011;4262;50.980;13.892;2024-03-17T01:44:52;11.60;;;4.80;;
8450;SDS011;4262;50.980;13.892;2024-03-17T01:47:19;11.33;;;4.00;;
8450;SDS011;4262;50.980;13.892;2024-03-17T01:49:46;9.50;;;4.70;;
8450;SDS011;4262;50.980;13.892;2024-03-17T01:52:14;10.70;;;5.07;;
8450;SDS011;4262;50.980;13.892;2024-03-17T01:54:42;10.50;;;5.27;;
8450;SDS011;4262;50.980;13.892;2024-03-17T01:57:09;10.67;;;4.30;;
8450;SDS011;4262;50.980;13.892;2024-03-17T01:59:36;10.40;;;4.53;;
8450;SDS011;4262;50.980;13.892;2024-03-17T02:02:02;10.10;;;5.00;;
8450;SDS011;4262;50.980;13.892;2024-03-17T02:04:30;14.33;;;5.50;;
8450;SDS011;4262;50.980;13.892;2024-03-17T02:06:56;11.60;;;4.90;;
8450;SDS011;4262;50.980;13.892;2024-03-17T02:09:23;9.27;;;4.50;;
8450;SDS011;4262;50.980;13.892;2024-03-17T02:11:49;9.07;;;4.83;;
8450;SDS011;4262;50.980;13.892;2024-03-17T02:14:15;17.57;;;4.73;;
8450;SDS011;4262;50.980;13.892;2024-03-17T02:16:42;12.33;;;4.50;;
8450;SDS011;4262;50.980;13.892;2024-03-17T02:19:09;11.27;;;4.37;;
8450;SDS011;4262;50.980;13.892;2024-03-17T02:21:37;10.20;;;4.67;;
8450;SDS011;4262;50.980;13.892;2024-03-17T02:24:06;9.50;;;4.30;;
8450;SDS011;4262;50.980;13.892;2024-03-17T02:26:33;10.20;;;5.47;;
8450;SDS011;4262;50.980;13.892;2024-03-17T02:29:00;11.23;;;5.00;;
8450;SDS011;4262;50.980;13.892;2024-03-17T02:31:26;10.00;;;5.07;;
8450;SDS011;4262;50.980;13.892;2024-03-17T02:33:53;10.83;;;4.50;;
8450;SDS011;4262;50.980;13.892;2024-03-17T02:36:19;11.83;;;4.67;;
8450;SDS011;4262;50.980;13.892;2024-03-17T02:38:46;14.60;;;4.97;;
8450;SDS011;4262;50.980;13.892;2024-03-17T02:41:32;12.43;;;5.40;;
8450;SDS011;4262;50.980;13.892;2024-03-17T02:43:58;11.77;;;5.03;;
8450;SDS011;4262;50.980;13.892;2024-03-17T02:46:25;11.40;;;5.17;;
8450;SDS011;4262;50.980;13.892;2024-03-17T02:48:53;10.93;;;5.83;;
8450;SDS011;4262;50.980;13.892;2024-03-17T02:51:20;10.90;;;4.60;;
8450;SDS011;4262;50.980;13.892;2024-03-17T02:53:49;10.30;;;4.73;;
8450;SDS011;4262;50.980;13.892;2024-03-17T02:56:17;14.20;;;5.67;;
8450;SDS011;4262;50.980;13.892;2024-03-17T02:58:46;9.37;;;4.90;;
8450;SDS011;4262;50.980;13.892;2024-03-17T03:01:14;14.00;;;4.00;;
8450;SDS011;4262;50.980;13.892;2024-03-17T03:03:41;16.30;;;5.30;;
8450;SDS011;4262;50.980;13.892;2024-03-17T03:06:08;13.10;;;5.00;;
8450;SDS011;4262;50.980;13.892;2024-03-17T03:08:37;10.77;;;5.00;;
8450;SDS011;4262;50.980;13.892;2024-03-17T03:11:06;11.23;;;4.67;;
8450;SDS011;4262;50.980;13.892;2024-03-17T03:13:36;12.37;;;4.87;;
8450;SDS011;4262;50.980;13.892;2024-03-17T03:16:06;13.17;;;4.50;;
8450;SDS011;4262;50.980;13.892;2024-03-17T03:18:34;7.93;;;4.47;;
8450;SDS011;4262;50.980;13.892;2024-03-17T03:21:01;9.33;;;4.10;;
8450;SDS011;4262;50.980;13.892;2024-03-17T03:23:27;10.03;;;5.00;;
8450;SDS011;4262;50.980;13.892;2024-03-17T03:25:54;14.47;;;5.00;;
8450;SDS011;4262;50.980;13.892;2024-03-17T03:28:22;13.10;;;5.27;;
8450;SDS011;4262;50.980;13.892;2024-03-17T03:30:49;12.07;;;4.77;;
8450;SDS011;4262;50.980;13.892;2024-03-17T03:33:18;11.60;;;5.13;;
8450;SDS011;4262;50.980;13.892;2024-03-17T03:35:44;11.23;;;4.13;;
8450;SDS011;4262;50.980;13.892;2024-03-17T03:38:11;10.03;;;5.03;;
8450;SDS011;4262;50.980;13.892;2024-03-17T03:40:39;12.90;;;5.50;;
8450;SDS011;4262;50.980;13.892;2024-03-17T03:43:06;8.93;;;4.70;;
8450;SDS011;4262;50.980;13.892;2024-03-17T03:45:33;9.37;;;4.50;;
8450;SDS011;4262;50.980;13.892;2024-03-17T03:48:00;10.50;;;4.70;;
8450;SDS011;4262;50.980;13.892;2024-03-17T03:50:30;7.57;;;4.33;;
8450;SDS011;4262;50.980;13.892;2024-03-17T03:52:57;17.97;;;5.40;;
8450;SDS011;4262;50.980;13.892;2024-03-17T03:55:24;8.47;;;4.73;;
8450;SDS011;4262;50.980;13.892;2024-03-17T03:57:51;10.00;;;4.63;;
8450;SDS011;4262;50.980;13.892;2024-03-17T04:00:18;9.47;;;4.60;;
8450;SDS011;4262;50.980;13.892;2024-03-17T04:02:47;11.73;;;4.90;;
8450;SDS011;4262;50.980;13.892;2024-03-17T04:05:15;9.93;;;4.73;;
8450;SDS011;4262;50.980;13.892;2024-03-17T04:07:45;11.13;;;4.83;;
8450;SDS011;4262;50.980;13.892;2024-03-17T04:10:12;10.73;;;4.70;;
8450;SDS011;4262;50.980;13.892;2024-03-17T04:12:39;9.10;;;4.70;;
8450;SDS011;4262;50.980;13.892;2024-03-17T04:15:07;10.30;;;5.00;;
8450;SDS011;4262;50.980;13.892;2024-03-17T04:17:35;10.40;;;4.80;;
8450;SDS011;4262;50.980;13.892;2024-03-17T04:20:03;10.73;;;5.60;;
8450;SDS011;4262;50.980;13.892;2024-03-17T04:22:33;11.43;;;5.63;;
8450;SDS011;4262;50.980;13.892;2024-03-17T04:25:02;12.03;;;5.27;;
8450;SDS011;4262;50.980;13.892;2024-03-17T04:27:29;10.13;;;4.93;;
8450;SDS011;4262;50.980;13.892;2024-03-17T04:29:58;13.67;;;5.33;;
8450;SDS011;4262;50.980;13.892;2024-03-17T04:32:25;9.80;;;5.00;;
8450;SDS011;4262;50.980;13.892;2024-03-17T04:34:53;11.70;;;4.43;;
8450;SDS011;4262;50.980;13.892;2024-03-17T04:37:20;11.53;;;5.50;;
8450;SDS011;4262;50.980;13.892;2024-03-17T04:39:48;9.40;;;5.07;;
8450;SDS011;4262;50.980;13.892;2024-03-17T04:42:17;10.70;;;4.63;;
8450;SDS011;4262;50.980;13.892;2024-03-17T04:44:44;11.43;;;5.03;;
8450;SDS011;4262;50.980;13.892;2024-03-17T04:47:11;12.60;;;5.10;;
8450;SDS011;4262;50.980;13.892;2024-03-17T04:49:39;13.83;;;5.50;;
8450;SDS011;4262;50.980;13.892;2024-03-17T04:52:06;10.87;;;5.50;;
8450;SDS011;4262;50.980;13.892;2024-03-17T04:54:33;9.83;;;5.40;;
8450;SDS011;4262;50.980;13.892;2024-03-17T04:57:01;11.80;;;5.57;;
8450;SDS011;4262;50.980;13.892;2024-03-17T04:59:33;12.43;;;4.93;;
8450;SDS011;4262;50.980;13.892;2024-03-17T05:02:00;12.60;;;5.03;;
8450;SDS011;4262;50.980;13.892;2024-03-17T05:04:28;12.37;;;5.50;;
8450;SDS011;4262;50.980;13.892;2024-03-17T05:06:56;14.33;;;5.33;;
8450;SDS011;4262;50.980;13.892;2024-03-17T05:09:22;11.73;;;5.70;;
8450;SDS011;4262;50.980;13.892;2024-03-17T05:11:50;13.53;;;5.63;;
8450;SDS011;4262;50.980;13.892;2024-03-17T05:14:18;11.60;;;5.17;;
8450;SDS011;4262;50.980;13.892;2024-03-17T05:16:47;17.10;;;5.70;;
8450;SDS011;4262;50.980;13.892;2024-03-17T05:19:15;10.97;;;5.57;;
8450;SDS011;4262;50.980;13.892;2024-03-17T05:21:43;11.13;;;5.40;;
8450;SDS011;4262;50.980;13.892;2024-03-17T05:24:10;11.63;;;4.93;;
8450;SDS011;4262;50.980;13.892;2024-03-17T05:26:37;9.90;;;4.60;;
8450;SDS011;4262;50.980;13.892;2024-03-17T05:29:04;10.17;;;5.77;;
8450;SDS011;4262;50.980;13.892;2024-03-17T05:31:31;11.17;;;5.27;;
8450;SDS011;4262;50.980;13.892;2024-03-17T05:33:59;11.97;;;5.20;;
8450;SDS011;4262;50.980;13.892;2024-03-17T05:36:26;13.13;;;5.13;;
8450;SDS011;4262;50.980;13.892;2024-03-17T05:38:58;12.50;;;5.33;;
8450;SDS011;4262;50.980;13.892;2024-03-17T05:41:25;15.37;;;5.93;;
8450;SDS011;4262;50.980;13.892;2024-03-17T05:43:53;11.90;;;5.83;;
8450;SDS011;4262;50.980;13.892;2024-03-17T05:46:24;10.63;;;5.20;;
8450;SDS011;4262;50.980;13.892;2024-03-17T05:48:52;11.07;;;5.13;;
8450;SDS011;4262;50.980;13.892;2024-03-17T05:51:21;14.83;;;5.73;;
8450;SDS011;4262;50.980;13.892;2024-03-17T05:53:52;14.17;;;5.20;;
8450;SDS011;4262;50.980;13.892;2024-03-17T05:56:21;13.57;;;6.20;;
8450;SDS011;4262;50.980;13.892;2024-03-17T05:58:48;13.53;;;6.30;;
8450;SDS011;4262;50.980;13.892;2024-03-17T06:01:14;13.17;;;4.87;;
8450;SDS011;4262;50.980;13.892;2024-03-17T06:03:41;13.63;;;5.50;;
8450;SDS011;4262;50.980;13.892;2024-03-17T06:06:08;13.37;;;6.30;;
8450;SDS011;4262;50.980;13.892;2024-03-17T06:08:38;13.77;;;7.07;;
8450;SDS011;4262;50.980;13.892;2024-03-17T06:11:05;13.40;;;5.60;;
8450;SDS011;4262;50.980;13.892;2024-03-17T06:13:32;14.93;;;5.90;;
8450;SDS011;4262;50.980;13.892;2024-03-17T06:15:58;10.63;;;5.80;;
8450;SDS011;4262;50.980;13.892;2024-03-17T06:18:27;12.53;;;5.67;;
8450;SDS011;4262;50.980;13.892;2024-03-17T06:20:54;14.17;;;5.60;;
8450;SDS011;4262;50.980;13.892;2024-03-17T06:23:23;15.00;;;5.93;;
8450;SDS011;4262;50.980;13.892;2024-03-17T06:25:51;16.40;;;5.63;;
8450;SDS011;4262;50.980;13.892;2024-03-17T06:28:19;13.63;;;5.73;;
8450;SDS011;4262;50.980;13.892;2024-03-17T06:30:54;11.47;;;5.80;;
8450;SDS011;4262;50.980;13.892;2024-03-17T06:33:24;11.70;;;6.63;;
8450;SDS011;4262;50.980;13.892;2024-03-17T06:35:53;10.20;;;5.40;;
8450;SDS011;4262;50.980;13.892;2024-03-17T06:38:20;13.97;;;6.00;;
8450;SDS011;4262;50.980;13.892;2024-03-17T06:40:49;10.63;;;6.07;;
8450;SDS011;4262;50.980;13.892;2024-03-17T06:43:18;13.20;;;5.70;;
8450;SDS011;4262;50.980;13.892;2024-03-17T06:45:53;11.30;;;6.43;;
8450;SDS011;4262;50.980;13.892;2024-03-17T06:48:20;12.40;;;5.90;;
8450;SDS011;4262;50.980;13.892;2024-03-17T06:50:47;15.23;;;5.97;;
8450;SDS011;4262;50.980;13.892;2024-03-17T06:53:13;14.43;;;5.80;;
8450;SDS011;4262;50.980;13.892;2024-03-17T06:55:40;16.00;;;6.40;;
8450;SDS011;4262;50.980;13.892;2024-03-17T06:58:07;13.37;;;5.67;;
8450;SDS011;4262;50.980;13.892;2024-03-17T07:00:35;18.20;;;7.80;;
8450;SDS011;4262;50.980;13.892;2024-03-17T07:03:01;11.97;;;5.30;;
8450;SDS011;4262;50.980;13.892;2024-03-17T07:05:28;12.67;;;5.40;;
8450;SDS011;4262;50.980;13.892;2024-03-17T07:07:57;12.30;;;5.63;;
8450;SDS011;4262;50.980;13.892;2024-03-17T07:10:24;13.73;;;5.27;;
8450;SDS011;4262;50.980;13.892;2024-03-17T07:12:52;14.37;;;5.10;;
8450;SDS011;4262;50.980;13.892;2024-03-17T07:15:19;10.13;;;4.70;;
8450;SDS011;4262;50.980;13.892;2024-03-17T07:17:46;11.17;;;5.50;;
8450;SDS011;4262;50.980;13.892;2024-03-17T07:20:13;16.20;;;5.60;;
8450;SDS011;4262;50.980;13.892;2024-03-17T07:22:40;15.40;;;5.83;;
8450;SDS011;4262;50.980;13.892;2024-03-17T07:25:07;15.27;;;5.43;;
8450;SDS011;4262;50.980;13.892;2024-03-17T07:27:34;12.80;;;5.13;;
8450;SDS011;4262;50.980;13.892;2024-03-17T07:30:03;10.33;;;4.93;;
8450;SDS011;4262;50.980;13.892;2024-03-17T07:32:31;21.50;;;4.73;;
8450;SDS011;4262;50.980;13.892;2024-03-17T07:35:00;14.23;;;5.73;;
8450;SDS011;4262;50.980;13.892;2024-03-17T07:37:26;13.57;;;4.70;;
8450;SDS011;4262;50.980;13.892;2024-03-17T07:39:53;13.43;;;5.00;;
8450;SDS011;4262;50.980;13.892;2024-03-17T07:42:19;12.53;;;5.80;;
8450;SDS011;4262;50.980;13.892;2024-03-17T07:44:46;17.70;;;4.50;;
8450;SDS011;4262;50.980;13.892;2024-03-17T07:47:12;14.20;;;4.47;;
8450;SDS011;4262;50.980;13.892;2024-03-17T07:49:39;19.17;;;4.97;;
8450;SDS011;4262;50.980;13.892;2024-03-17T07:52:08;14.70;;;4.80;;
8450;SDS011;4262;50.980;13.892;2024-03-17T07:54:35;10.90;;;4.70;;
8450;SDS011;4262;50.980;13.892;2024-03-17T07:57:02;12.70;;;4.40;;
8450;SDS011;4262;50.980;13.892;2024-03-17T07:59:29;14.93;;;4.40;;
8450;SDS011;4262;50.980;13.892;2024-03-17T08:01:56;13.60;;;4.17;;
8450;SDS011;4262;50.980;13.892;2024-03-17T08:04:23;16.43;;;4.70;;
8450;SDS011;4262;50.980;13.892;2024-03-17T08:06:50;14.80;;;4.40;;
8450;SDS011;4262;50.980;13.892;2024-03-17T08:09:18;15.03;;;4.47;;
8450;SDS011;4262;50.980;13.892;2024-03-17T08:11:45;15.93;;;4.00;;
8450;SDS011;4262;50.980;13.892;2024-03-17T08:14:12;17.57;;;4.97;;
8450;SDS011;4262;50.980;13.892;2024-03-17T08:16:43;15.30;;;3.97;;
8450;SDS011;4262;50.980;13.892;2024-03-17T08:19:11;20.13;;;4.60;;
8450;SDS011;4262;50.980;13.892;2024-03-17T08:21:37;12.73;;;4.13;;
8450;SDS011;4262;50.980;13.892;2024-03-17T08:24:04;12.57;;;4.33;;
8450;SDS011;4262;50.980;13.892;2024-03-17T08:26:33;13.50;;;3.87;;
8450;SDS011;4262;50.980;13.892;2024-03-17T08:29:10;14.23;;;3.97;;
8450;SDS011;4262;50.980;13.892;2024-03-17T08:31:38;17.60;;;4.97;;
8450;SDS011;4262;50.980;13.892;2024-03-17T08:34:10;13.17;;;4.57;;
8450;SDS011;4262;50.980;13.892;2024-03-17T08:36:37;15.23;;;4.37;;
8450;SDS011;4262;50.980;13.892;2024-03-17T08:39:03;25.53;;;5.03;;
8450;SDS011;4262;50.980;13.892;2024-03-17T08:41:30;12.87;;;3.77;;
8450;SDS011;4262;50.980;13.892;2024-03-17T08:43:58;15.20;;;4.80;;
8450;SDS011;4262;50.980;13.892;2024-03-17T08:46:27;13.10;;;3.60;;
8450;SDS011;4262;50.980;13.892;2024-03-17T08:48:58;16.10;;;4.63;;
8450;SDS011;4262;50.980;13.892;2024-03-17T08:51:24;11.60;;;3.90;;
8450;SDS011;4262;50.980;13.892;2024-03-17T08:53:51;17.80;;;4.93;;
8450;SDS011;4262;50.980;13.892;2024-03-17T08:56:18;16.00;;;5.07;;
8450;SDS011;4262;50.980;13.892;2024-03-17T08:58:45;16.40;;;4.20;;
8450;SDS011;4262;50.980;13.892;2024-03-17T09:01:19;11.60;;;3.93;;
8450;SDS011;4262;50.980;13.892;2024-03-17T09:03:46;23.83;;;4.03;;
8450;SDS011;4262;50.980;13.892;2024-03-17T09:06:15;13.10;;;3.33;;
8450;SDS011;4262;50.980;13.892;2024-03-17T09:08:44;10.70;;;4.33;;
8450;SDS011;4262;50.980;13.892;2024-03-17T09:11:11;16.13;;;4.30;;
8450;SDS011;4262;50.980;13.892;2024-03-17T09:13:41;16.83;;;4.07;;
8450;SDS011;4262;50.980;13.892;2024-03-17T09:16:08;17.93;;;4.77;;
8450;SDS011;4262;50.980;13.892;2024-03-17T09:18:40;17.60;;;5.77;;
8450;SDS011;4262;50.980;13.892;2024-03-17T09:21:18;19.73;;;5.23;;
8450;SDS011;4262;50.980;13.892;2024-03-17T09:23:47;24.57;;;8.07;;
8450;SDS011;4262;50.980;13.892;2024-03-17T09:26:15;14.93;;;4.30;;
8450;SDS011;4262;50.980;13.892;2024-03-17T09:28:43;16.23;;;3.83;;
8450;SDS011;4262;50.980;13.892;2024-03-17T09:31:13;16.80;;;3.67;;
8450;SDS011;4262;50.980;13.892;2024-03-17T09:33:46;12.67;;;3.33;;
8450;SDS011;4262;50.980;13.892;2024-03-17T09:36:17;15.60;;;4.83;;
8450;SDS011;4262;50.980;13.892;2024-03-17T09:38:58;12.67;;;4.03;;
8450;SDS011;4262;50.980;13.892;2024-03-17T09:41:32;14.40;;;4.10;;
8450;SDS011;4262;50.980;13.892;2024-03-17T09:44:04;13.63;;;3.70;;
8450;SDS011;4262;50.980;13.892;2024-03-17T09:46:34;11.37;;;3.47;;
8450;SDS011;4262;50.980;13.892;2024-03-17T09:49:05;11.50;;;3.40;;
8450;SDS011;4262;50.980;13.892;2024-03-17T09:51:40;10.07;;;3.30;;
8450;SDS011;4262;50.980;13.892;2024-03-17T09:54:17;11.53;;;3.70;;
8450;SDS011;4262;50.980;13.892;2024-03-17T09:56:51;11.20;;;3.00;;
8450;SDS011;4262;50.980;13.892;2024-03-17T09:59:22;11.00;;;3.37;;
8450;SDS011;4262;50.980;13.892;2024-03-17T10:01:57;17.57;;;4.50;;
8450;SDS011;4262;50.980;13.892;2024-03-17T10:04:36;9.13;;;2.63;;
8450;SDS011;4262;50.980;13.892;2024-03-17T10:07:09;14.80;;;3.67;;
8450;SDS011;4262;50.980;13.892;2024-03-17T10:09:41;11.27;;;3.73;;
8450;SDS011;4262;50.980;13.892;2024-03-17T10:12:25;11.53;;;3.30;;
8450;SDS011;4262;50.980;13.892;2024-03-17T10:14:59;10.80;;;2.90;;
8450;SDS011;4262;50.980;13.892;2024-03-17T10:17:30;6.77;;;2.30;;
8450;SDS011;4262;50.980;13.892;2024-03-17T10:20:13;12.43;;;3.40;;
8450;SDS011;4262;50.980;13.892;2024-03-17T10:23:01;16.20;;;3.50;;
8450;SDS011;4262;50.980;13.892;2024-03-17T10:25:29;14.30;;;3.83;;
8450;SDS011;4262;50.980;13.892;2024-03-17T10:27:59;11.00;;;3.80;;
8450;SDS011;4262;50.980;13.892;2024-03-17T10:30:32;12.70;;;2.70;;
8450;SDS011;4262;50.980;13.892;2024-03-17T10:33:22;13.40;;;3.17;;
8450;SDS011;4262;50.980;13.892;2024-03-17T10:35:59;10.33;;;2.40;;
8450;SDS011;4262;50.980;13.892;2024-03-17T10:38:30;8.90;;;2.80;;
8450;SDS011;4262;50.980;13.892;2024-03-17T10:40:58;8.43;;;2.30;;
8450;SDS011;4262;50.980;13.892;2024-03-17T10:43:27;11.00;;;2.87;;
8450;SDS011;4262;50.980;13.892;2024-03-17T10:45:56;11.03;;;3.03;;
8450;SDS011;4262;50.980;13.892;2024-03-17T10:48:27;11.70;;;2.73;;
8450;SDS011;4262;50.980;13.892;2024-03-17T10:50:59;8.67;;;2.10;;
8450;SDS011;4262;50.980;13.892;2024-03-17T10:53:31;14.63;;;3.77;;
8450;SDS011;4262;50.980;13.892;2024-03-17T10:56:03;12.40;;;3.10;;
8450;SDS011;4262;50.980;13.892;2024-03-17T10:58:34;9.30;;;2.83;;
8450;SDS011;4262;50.980;13.892;2024-03-17T11:01:12;9.63;;;2.97;;
8450;SDS011;4262;50.980;13.892;2024-03-17T11:03:41;7.70;;;2.63;;
8450;SDS011;4262;50.980;13.892;2024-03-17T11:06:21;12.10;;;2.83;;
8450;SDS011;4262;50.980;13.892;2024-03-17T11:08:50;16.73;;;3.67;;
8450;SDS011;4262;50.980;13.892;2024-03-17T11:14:16;12.00;;;3.17;;
8450;SDS011;4262;50.980;13.892;2024-03-17T11:16:45;10.70;;;2.80;;
8450;SDS011;4262;50.980;13.892;2024-03-17T11:19:14;12.43;;;2.90;;
8450;SDS011;4262;50.980;13.892;2024-03-17T11:21:48;11.60;;;2.67;;
8450;SDS011;4262;50.980;13.892;2024-03-17T11:24:18;11.97;;;3.10;;
8450;SDS011;4262;50.980;13.892;2024-03-17T11:26:46;8.17;;;2.80;;
8450;SDS011;4262;50.980;13.892;2024-03-17T11:29:27;9.73;;;3.10;;
8450;SDS011;4262;50.980;13.892;2024-03-17T11:31:54;9.93;;;2.47;;
8450;SDS011;4262;50.980;13.892;2024-03-17T11:34:28;9.10;;;2.87;;
8450;SDS011;4262;50.980;13.892;2024-03-17T11:37:00;13.33;;;4.00;;
8450;SDS011;4262;50.980;13.892;2024-03-17T11:39:45;14.57;;;3.03;;
8450;SDS011;4262;50.980;13.892;2024-03-17T11:42:16;11.20;;;2.70;;
8450;SDS011;4262;50.980;13.892;2024-03-17T11:44:44;11.27;;;3.17;;
8450;SDS011;4262;50.980;13.892;2024-03-17T11:47:20;12.17;;;3.57;;
8450;SDS011;4262;50.980;13.892;2024-03-17T11:49:47;12.23;;;3.17;;
8450;SDS011;4262;50.980;13.892;2024-03-17T11:52:17;11.50;;;3.27;;
8450;SDS011;4262;50.980;13.892;2024-03-17T11:54:46;11.27;;;3.00;;
8450;SDS011;4262;50.980;13.892;2024-03-17T11:57:17;12.67;;;2.80;;
8450;SDS011;4262;50.980;13.892;2024-03-17T11:59:50;14.87;;;5.30;;
8450;SDS011;4262;50.980;13.892;2024-03-17T12:02:18;16.70;;;5.17;;
8450;SDS011;4262;50.980;13.892;2024-03-17T12:04:49;11.20;;;3.73;;
8450;SDS011;4262;50.980;13.892;2024-03-17T12:07:18;14.83;;;4.40;;
8450;SDS011;4262;50.980;13.892;2024-03-17T12:09:47;10.23;;;3.63;;
8450;SDS011;4262;50.980;13.892;2024-03-17T12:12:16;17.30;;;5.07;;
8450;SDS011;4262;50.980;13.892;2024-03-17T12:14:43;12.60;;;5.10;;
8450;SDS011;4262;50.980;13.892;2024-03-17T12:17:12;12.27;;;4.43;;
8450;SDS011;4262;50.980;13.892;2024-03-17T12:19:49;16.00;;;4.30;;
8450;SDS011;4262;50.980;13.892;2024-03-17T12:22:22;10.30;;;3.10;;
8450;SDS011;4262;50.980;13.892;2024-03-17T12:24:50;15.50;;;3.80;;
8450;SDS011;4262;50.980;13.892;2024-03-17T12:27:20;13.53;;;3.83;;
8450;SDS011;4262;50.980;13.892;2024-03-17T12:29:47;12.33;;;3.80;;
8450;SDS011;4262;50.980;13.892;2024-03-17T12:32:15;9.53;;;3.13;;
8450;SDS011;4262;50.980;13.892;2024-03-17T12:34:42;11.93;;;3.17;;
8450;SDS011;4262;50.980;13.892;2024-03-17T12:37:13;7.50;;;2.60;;
8450;SDS011;4262;50.980;13.892;2024-03-17T12:39:47;13.57;;;3.10;;
8450;SDS011;4262;50.980;13.892;2024-03-17T12:42:16;10.07;;;2.83;;
8450;SDS011;4262;50.980;13.892;2024-03-17T12:44:49;13.40;;;3.30;;
8450;SDS011;4262;50.980;13.892;2024-03-17T12:47:17;13.00;;;3.70;;
8450;SDS011;4262;50.980;13.892;2024-03-17T12:49:44;10.53;;;3.23;;
8450;SDS011;4262;50.980;13.892;2024-03-17T12:52:16;11.87;;;3.60;;
8450;SDS011;4262;50.980;13.892;2024-03-17T12:55:01;9.10;;;3.03;;
8450;SDS011;4262;50.980;13.892;2024-03-17T12:58:04;10.67;;;2.90;;
8450;SDS011;4262;50.980;13.892;2024-03-17T13:00:56;12.07;;;3.37;;
8450;SDS011;4262;50.980;13.892;2024-03-17T13:03:24;10.33;;;3.60;;
8450;SDS011;4262;50.980;13.892;2024-03-17T13:05:56;9.40;;;2.63;;
8450;SDS011;4262;50.980;13.892;2024-03-17T13:08:22;14.80;;;3.83;;
8450;SDS011;4262;50.980;13.892;2024-03-17T13:10:52;9.60;;;3.50;;
8450;SDS011;4262;50.980;13.892;2024-03-17T13:13:21;11.40;;;3.37;;
8450;SDS011;4262;50.980;13.892;2024-03-17T13:15:48;13.40;;;3.37;;
8450;SDS011;4262;50.980;13.892;2024-03-17T13:18:16;12.50;;;3.63;;
8450;SDS011;4262;50.980;13.892;2024-03-17T13:20:44;10.53;;;2.87;;
8450;SDS011;4262;50.980;13.892;2024-03-17T13:23:12;15.10;;;3.10;;
8450;SDS011;4262;50.980;13.892;2024-03-17T13:25:39;12.90;;;3.70;;
8450;SDS011;4262;50.980;13.892;2024-03-17T13:28:10;11.07;;;3.37;;
8450;SDS011;4262;50.980;13.892;2024-03-17T13:30:40;9.67;;;3.10;;
8450;SDS011;4262;50.980;13.892;2024-03-17T13:33:08;9.83;;;3.23;;
8450;SDS011;4262;50.980;13.892;2024-03-17T13:35:37;12.93;;;3.23;;
8450;SDS011;4262;50.980;13.892;2024-03-17T13:38:05;15.43;;;4.07;;
8450;SDS011;4262;50.980;13.892;2024-03-17T13:40:33;9.43;;;2.73;;
8450;SDS011;4262;50.980;13.892;2024-03-17T13:43:00;14.27;;;3.10;;
8450;SDS011;4262;50.980;13.892;2024-03-17T13:45:30;11.07;;;3.73;;
8450;SDS011;4262;50.980;13.892;2024-03-17T13:48:04;11.30;;;3.90;;
8450;SDS011;4262;50.980;13.892;2024-03-17T13:50:34;12.90;;;5.10;;
8450;SDS011;4262;50.980;13.892;2024-03-17T13:53:01;17.83;;;4.70;;
8450;SDS011;4262;50.980;13.892;2024-03-17T13:55:28;12.40;;;3.73;;
8450;SDS011;4262;50.980;13.892;2024-03-17T13:57:55;11.00;;;3.13;;
8450;SDS011;4262;50.980;13.892;2024-03-17T14:00:25;12.20;;;3.70;;
8450;SDS011;4262;50.980;13.892;2024-03-17T14:02:54;13.77;;;3.90;;
8450;SDS011;4262;50.980;13.892;2024-03-17T14:05:22;14.63;;;3.60;;
8450;SDS011;4262;50.980;13.892;2024-03-17T14:07:51;9.53;;;3.60;;
8450;SDS011;4262;50.980;13.892;2024-03-17T14:10:19;8.70;;;3.67;;
8450;SDS011;4262;50.980;13.892;2024-03-17T14:12:46;11.60;;;3.43;;
8450;SDS011;4262;50.980;13.892;2024-03-17T14:15:15;12.07;;;3.73;;
8450;SDS011;4262;50.980;13.892;2024-03-17T14:17:43;11.60;;;3.80;;
8450;SDS011;4262;50.980;13.892;2024-03-17T14:20:12;13.70;;;4.27;;
8450;SDS011;4262;50.980;13.892;2024-03-17T14:22:41;12.83;;;4.10;;
8450;SDS011;4262;50.980;13.892;2024-03-17T14:25:09;14.90;;;3.67;;
8450;SDS011;4262;50.980;13.892;2024-03-17T14:27:38;11.70;;;4.37;;
8450;SDS011;4262;50.980;13.892;2024-03-17T14:30:06;13.27;;;3.67;;
8450;SDS011;4262;50.980;13.892;2024-03-17T14:32:33;12.17;;;4.17;;
8450;SDS011;4262;50.980;13.892;2024-03-17T14:35:02;14.23;;;4.20;;
8450;SDS011;4262;50.980;13.892;2024-03-17T14:37:32;17.00;;;4.40;;
8450;SDS011;4262;50.980;13.892;2024-03-17T14:40:01;14.63;;;4.20;;
8450;SDS011;4262;50.980;13.892;2024-03-17T14:42:32;16.90;;;4.57;;
8450;SDS011;4262;50.980;13.892;2024-03-17T14:44:58;12.37;;;4.23;;
8450;SDS011;4262;50.980;13.892;2024-03-17T14:47:26;10.90;;;4.80;;
8450;SDS011;4262;50.980;13.892;2024-03-17T14:49:53;12.63;;;4.63;;
8450;SDS011;4262;50.980;13.892;2024-03-17T14:52:20;17.10;;;4.20;;
8450;SDS011;4262;50.980;13.892;2024-03-17T14:54:48;12.50;;;3.83;;
8450;SDS011;4262;50.980;13.892;2024-03-17T14:57:18;9.10;;;3.53;;
8450;SDS011;4262;50.980;13.892;2024-03-17T14:59:48;12.97;;;4.17;;
8450;SDS011;4262;50.980;13.892;2024-03-17T15:02:15;16.10;;;4.10;;
8450;SDS011;4262;50.980;13.892;2024-03-17T15:04:41;12.73;;;4.17;;